Time;durP1;ratioP1;P1;durP2;ratioP2;P2;SDS_P1;SDS_P2;PMS_P1;PMS_P2;Temp;Humidity;BMP_temperature;BMP_pressure;BME280_temperature;BME280_humidity;BME280_pressure;Samples;Min_cycle;Max_cycle;Signal;HPM_P1;HPM_P2
2023/10/29 00:01:46;;;;;;;5.73;2.20;;;;;;;10.14;68.02;99587.59;5019300;27;97401;-80
2023/10/29 00:04:11;;;;;;;4.50;1.57;;;;;;;10.19;67.94;99584.72;5018435;28;97713;-79
2023/10/29 00:06:36;;;;;;;1.53;1.23;;;;;;;10.23;68.00;99578.84;5018616;27;97939;-80
2023/10/29 00:09:02;;;;;;;4.07;1.60;;;;;;;10.25;68.15;99554.16;5017323;27;97577;-80
2023/10/29 00:11:27;;;;;;;2.20;1.77;;;;;;;10.29;68.08;99554.56;5016816;27;97835;-80
2023/10/29 00:13:53;;;;;;;9.23;1.43;;;;;;;10.33;68.07;99560.50;5019726;28;97358;-80
2023/10/29 00:16:18;;;;;;;2.70;1.40;;;;;;;10.35;68.09;99535.81;5018585;28;96847;-80
2023/10/29 00:18:43;;;;;;;2.40;1.20;;;;;;;10.36;68.04;99567.72;5019748;28;100328;-79
2023/10/29 00:21:08;;;;;;;3.50;1.27;;;;;;;10.39;68.02;99567.38;5018481;27;97803;-80
2023/10/29 00:23:34;;;;;;;3.40;1.40;;;;;;;10.38;68.20;99526.44;5031987;27;97360;-79
2023/10/29 00:26:00;;;;;;;4.83;1.87;;;;;;;10.43;68.24;99522.78;5021114;27;96840;-80
2023/10/29 00:28:28;;;;;;;2.17;1.30;;;;;;;10.35;68.35;99557.94;5017468;27;99053;-80
2023/10/29 00:30:55;;;;;;;2.50;1.33;;;;;;;10.40;68.24;99535.69;5020072;28;98745;-79
2023/10/29 00:33:20;;;;;;;3.67;1.57;;;;;;;10.43;68.17;99531.84;5014297;28;97088;-79
2023/10/29 00:35:46;;;;;;;3.90;1.63;;;;;;;10.43;68.40;99531.09;5022003;28;97530;-79
2023/10/29 00:38:11;;;;;;;5.70;1.43;;;;;;;10.43;68.30;99540.13;5020614;28;99835;-80
2023/10/29 00:40:39;;;;;;;2.30;1.30;;;;;;;10.47;68.40;99537.00;5024839;27;98366;-79
2023/10/29 00:43:05;;;;;;;3.77;1.20;;;;;;;10.48;68.41;99563.38;5022048;27;97446;-78
2023/10/29 00:45:31;;;;;;;2.60;1.40;;;;;;;10.50;68.38;99524.88;5038343;27;97257;-79
2023/10/29 00:47:57;;;;;;;6.27;1.30;;;;;;;10.53;68.52;99532.81;5023344;28;97078;-79
2023/10/29 00:50:23;;;;;;;1.80;1.23;;;;;;;10.54;68.39;99514.22;5022901;27;99967;-80
2023/10/29 00:52:48;;;;;;;2.20;1.00;;;;;;;10.56;68.47;99497.81;5025607;27;97417;-79
2023/10/29 00:55:14;;;;;;;4.30;1.93;;;;;;;10.55;68.57;99512.91;5025473;27;97278;-80
2023/10/29 00:57:40;;;;;;;1.37;1.20;;;;;;;10.57;68.53;99486.19;5025329;28;97042;-79
2023/10/29 01:00:06;;;;;;;2.00;1.40;;;;;;;10.57;68.53;99508.31;5026263;27;96645;-79
2023/10/29 01:02:33;;;;;;;1.97;1.40;;;;;;;10.59;68.65;99499.47;5021574;27;97216;-79
2023/10/29 01:04:58;;;;;;;2.80;1.33;;;;;;;10.62;68.70;99492.88;5023289;27;97565;-79
2023/10/29 01:07:24;;;;;;;6.13;1.40;;;;;;;10.61;68.62;99486.59;5024505;28;98436;-79
2023/10/29 01:09:50;;;;;;;1.20;1.10;;;;;;;10.68;68.63;99501.75;5026365;27;98523;-79
2023/10/29 01:12:19;;;;;;;2.50;1.10;;;;;;;10.70;68.65;99482.56;5023446;28;97461;-79
2023/10/29 01:14:45;;;;;;;2.40;1.30;;;;;;;10.60;68.75;99520.31;5024519;28;97381;-79
2023/10/29 01:17:10;;;;;;;6.00;1.73;;;;;;;10.70;68.68;99477.03;5015267;28;100302;-80
2023/10/29 01:19:36;;;;;;;2.87;1.20;;;;;;;10.70;68.57;99482.56;5022420;28;97505;-80
2023/10/29 01:22:01;;;;;;;1.33;1.23;;;;;;;10.72;68.77;99477.22;5021988;28;102108;-79
2023/10/29 01:24:27;;;;;;;3.17;1.17;;;;;;;10.75;68.76;99501.06;5020588;27;98277;-80
2023/10/29 01:26:53;;;;;;;1.03;0.90;;;;;;;10.77;68.75;99487.41;5020670;28;99174;-79
2023/10/29 01:29:19;;;;;;;1.37;1.20;;;;;;;10.76;68.47;99486.66;5020516;28;97088;-79
2023/10/29 01:31:47;;;;;;;1.10;1.00;;;;;;;10.77;68.82;99484.66;5022276;28;98379;-80
2023/10/29 01:34:12;;;;;;;1.43;0.90;;;;;;;10.66;68.72;99465.59;5020870;27;97230;-79
2023/10/29 01:36:38;;;;;;;2.90;1.30;;;;;;;10.77;68.95;99484.66;5036227;27;107685;-79
2023/10/29 01:39:04;;;;;;;3.90;0.80;;;;;;;10.78;68.93;99473.03;5022088;28;102534;-80
2023/10/29 01:41:30;;;;;;;1.27;0.83;;;;;;;10.81;68.78;99468.47;5018892;27;97524;-80
2023/10/29 01:43:55;;;;;;;2.17;1.40;;;;;;;10.80;68.75;99453.16;5036222;27;97428;-79
2023/10/29 01:46:21;;;;;;;2.70;1.00;;;;;;;10.83;68.78;99457.59;5019834;27;97634;-81
2023/10/29 01:48:46;;;;;;;2.10;1.20;;;;;;;10.85;68.73;99470.88;5021312;27;100654;-80
2023/10/29 01:51:12;;;;;;;2.67;0.93;;;;;;;10.86;68.91;99439.16;5021323;28;98937;-79
2023/10/29 01:53:37;;;;;;;1.67;1.13;;;;;;;10.89;68.93;99427.75;5021333;27;97094;-79
2023/10/29 01:56:07;;;;;;;3.00;1.13;;;;;;;10.87;68.83;99416.50;5018307;28;97996;-79
2023/10/29 01:58:32;;;;;;;2.17;0.90;;;;;;;10.87;68.96;99399.88;5017973;27;100261;-79
2023/10/29 02:00:57;;;;;;;4.10;0.90;;;;;;;10.85;69.14;99391.38;5017843;27;97082;-79
2023/10/29 02:03:23;;;;;;;3.43;1.10;;;;;;;10.88;69.12;99376.44;5018420;28;97137;-79
2023/10/29 02:05:48;;;;;;;1.40;0.97;;;;;;;10.88;69.14;99401.34;5018031;28;99822;-79
2023/10/29 02:08:14;;;;;;;1.50;1.07;;;;;;;10.91;69.22;99374.63;5019306;27;108291;-79
2023/10/29 02:10:39;;;;;;;4.00;1.07;;;;;;;10.92;69.11;99376.09;5020155;27;97363;-79
2023/10/29 02:13:04;;;;;;;1.00;0.90;;;;;;;10.90;69.21;99364.81;5020675;27;109769;-79
2023/10/29 02:15:29;;;;;;;3.07;0.80;;;;;;;10.95;69.25;99366.69;5019083;28;99432;-79
2023/10/29 02:17:55;;;;;;;1.43;0.97;;;;;;;10.95;69.21;99397.88;5037445;27;99257;-79
2023/10/29 02:20:20;;;;;;;0.97;0.93;;;;;;;10.96;69.24;99348.81;5017841;28;96884;-79
2023/10/29 02:22:45;;;;;;;7.00;1.30;;;;;;;11.00;69.34;99349.94;5022688;27;97531;-80
2023/10/29 02:25:11;;;;;;;2.50;0.70;;;;;;;10.98;69.43;99352.47;5022720;27;100134;-79
2023/10/29 02:27:36;;;;;;;3.07;1.13;;;;;;;11.00;69.16;99374.09;5019977;28;96907;-79
2023/10/29 02:30:01;;;;;;;1.30;0.97;;;;;;;11.03;69.19;99353.59;5020990;28;97171;-80
2023/10/29 02:32:27;;;;;;;4.87;1.00;;;;;;;11.04;69.28;99350.31;5017676;27;97843;-79
2023/10/29 02:34:53;;;;;;;1.87;0.93;;;;;;;11.00;69.22;99332.59;5020796;28;97542;-79
2023/10/29 02:37:18;;;;;;;1.43;0.80;;;;;;;11.09;69.36;99343.84;5018214;28;100522;-79
2023/10/29 02:39:43;;;;;;;2.60;1.00;;;;;;;11.06;69.41;99319.31;5020559;27;97275;-79
2023/10/29 02:42:14;;;;;;;2.83;0.70;;;;;;;11.08;69.47;99317.47;5020717;27;103799;-79
2023/10/29 02:44:39;;;;;;;0.90;0.70;;;;;;;11.07;69.31;99302.13;5017999;28;99380;-78
2023/10/29 02:47:05;;;;;;;3.33;1.30;;;;;;;11.07;69.43;99318.75;5035872;27;113112;-79
2023/10/29 02:49:30;;;;;;;1.47;0.80;;;;;;;11.07;69.66;99315.25;5020640;27;97462;-79
2023/10/29 02:51:55;;;;;;;3.63;0.80;;;;;;;11.06;69.53;99356.03;5020148;28;97642;-80
2023/10/29 02:54:21;;;;;;;1.20;0.90;;;;;;;11.12;69.60;99297.72;5019262;27;97870;-79
2023/10/29 02:56:46;;;;;;;2.70;0.80;;;;;;;11.15;69.51;99300.13;5018215;28;100175;-80
2023/10/29 02:59:11;;;;;;;1.63;0.80;;;;;;;11.14;69.51;99308.97;5018573;28;97133;-80
2023/10/29 03:01:37;;;;;;;3.03;1.00;;;;;;;11.16;69.57;99312.66;5018719;27;97401;-79
2023/10/29 03:04:04;;;;;;;2.90;0.90;;;;;;;11.16;69.71;99311.91;5018542;27;97776;-80
2023/10/29 03:06:31;;;;;;;3.10;1.20;;;;;;;11.18;69.68;99304.53;5016139;27;97775;-80
2023/10/29 03:08:56;;;;;;;3.53;0.93;;;;;;;11.20;69.50;99290.88;5033915;27;97181;-80
2023/10/29 03:11:21;;;;;;;2.70;0.90;;;;;;;11.18;69.69;99282.41;5021195;27;97212;-79
2023/10/29 03:13:47;;;;;;;1.53;0.80;;;;;;;11.22;69.58;99282.75;5022773;27;96888;-80
2023/10/29 03:16:15;;;;;;;3.17;0.60;;;;;;;11.22;69.66;99293.13;5021655;28;97062;-80
2023/10/29 03:18:40;;;;;;;5.07;1.07;;;;;;;11.23;69.71;99289.78;5019537;28;96844;-80
2023/10/29 03:21:06;;;;;;;7.07;0.87;;;;;;;11.16;69.74;99292.53;5021925;27;97590;-80
2023/10/29 03:23:31;;;;;;;3.47;1.00;;;;;;;11.25;69.71;99281.66;5020435;28;100344;-80
2023/10/29 03:26:02;;;;;;;3.30;0.97;;;;;;;11.28;69.83;99263.97;5021043;27;98532;-80
2023/10/29 03:28:27;;;;;;;1.90;0.80;;;;;;;11.27;69.71;99264.50;5019111;27;97070;-80
2023/10/29 03:30:53;;;;;;;6.57;1.00;;;;;;;11.30;69.52;99271.69;5019256;27;96962;-80
2023/10/29 03:33:18;;;;;;;2.97;0.80;;;;;;;11.28;69.72;99266.72;5019830;28;97973;-80
2023/10/29 03:35:43;;;;;;;1.33;0.97;;;;;;;11.30;69.73;99260.63;5017326;27;99150;-80
2023/10/29 03:38:09;;;;;;;2.40;0.70;;;;;;;11.31;69.63;99251.00;5021420;28;97129;-80
2023/10/29 03:40:34;;;;;;;1.20;0.80;;;;;;;11.34;69.74;99252.69;5021378;28;96659;-79
2023/10/29 03:42:59;;;;;;;4.83;0.80;;;;;;;11.31;69.71;99235.16;5035788;27;99811;-80
2023/10/29 03:45:25;;;;;;;0.90;0.80;;;;;;;11.33;69.76;99248.44;5022659;27;98084;-78
2023/10/29 03:47:50;;;;;;;3.00;0.90;;;;;;;11.34;69.71;99245.13;5021206;28;97121;-78
2023/10/29 03:50:18;;;;;;;1.30;0.93;;;;;;;11.39;69.87;99257.31;5020374;28;96844;-80
2023/10/29 03:52:44;;;;;;;1.00;0.60;;;;;;;11.37;69.78;99229.44;5018850;28;98922;-79
2023/10/29 03:55:09;;;;;;;3.57;0.93;;;;;;;11.38;69.79;99228.88;5021585;28;97802;-80
2023/10/29 03:57:35;;;;;;;0.83;0.83;;;;;;;11.33;69.75;99248.44;5021738;27;97499;-80
2023/10/29 04:00:00;;;;;;;2.70;0.77;;;;;;;11.39;69.88;99241.44;5022344;27;97204;-79
2023/10/29 04:02:26;;;;;;;1.17;0.73;;;;;;;11.44;69.82;99239.72;5021545;28;99074;-79
2023/10/29 04:04:51;;;;;;;6.90;0.90;;;;;;;11.44;69.79;99243.25;5020355;27;97188;-80
2023/10/29 04:07:16;;;;;;;0.80;0.80;;;;;;;11.43;69.60;99230.72;5019193;27;110125;-79
2023/10/29 04:09:41;;;;;;;6.43;0.93;;;;;;;11.38;69.77;99215.03;5023215;27;99727;-79
2023/10/29 04:12:07;;;;;;;1.63;0.60;;;;;;;11.42;69.81;99223.69;5022295;27;101910;-80
2023/10/29 04:14:32;;;;;;;1.73;0.50;;;;;;;11.44;69.76;99220.34;5020437;28;98742;-80
2023/10/29 04:16:57;;;;;;;1.07;0.80;;;;;;;11.46;69.53;99234.41;5019772;28;105908;-80
2023/10/29 04:19:23;;;;;;;2.23;0.93;;;;;;;11.45;69.73;99213.53;5021813;28;96691;-80
2023/10/29 04:21:48;;;;;;;3.97;0.80;;;;;;;11.46;69.68;99203.94;5020528;27;97893;-80
2023/10/29 04:24:13;;;;;;;2.07;0.80;;;;;;;11.45;69.65;99208.75;5014602;28;100461;-80
2023/10/29 04:26:39;;;;;;;0.70;0.60;;;;;;;11.45;69.81;99196.91;5022434;28;100012;-80
2023/10/29 04:29:04;;;;;;;1.47;0.80;;;;;;;11.47;69.71;99200.59;5021577;28;97464;-80
2023/10/29 04:31:29;;;;;;;2.50;0.77;;;;;;;11.44;69.75;99243.25;5021684;28;98244;-80
2023/10/29 04:33:55;;;;;;;1.97;0.80;;;;;;;11.47;69.75;99180.47;5019258;27;101234;-79
2023/10/29 04:36:24;;;;;;;2.13;0.70;;;;;;;11.50;69.73;99174.56;5020674;28;98676;-81
2023/10/29 04:38:50;;;;;;;3.23;0.93;;;;;;;11.45;69.66;99172.00;5019679;28;97872;-80
2023/10/29 04:41:16;;;;;;;2.40;0.70;;;;;;;11.49;69.85;99173.09;5019451;28;100312;-80
2023/10/29 04:43:41;;;;;;;1.37;0.90;;;;;;;11.49;69.73;99173.09;5019937;27;100010;-81
2023/10/29 04:46:10;;;;;;;1.27;0.77;;;;;;;11.50;69.83;99168.28;5023196;28;99108;-80
2023/10/29 04:48:36;;;;;;;2.23;0.80;;;;;;;11.47;69.84;99175.69;5015508;27;97088;-79
2023/10/29 04:51:01;;;;;;;3.00;1.07;;;;;;;11.48;69.94;99157.75;5022371;28;97624;-80
2023/10/29 04:53:27;;;;;;;1.77;0.90;;;;;;;11.48;69.93;99182.69;5021880;27;97581;-79
2023/10/29 04:55:52;;;;;;;2.93;0.70;;;;;;;11.46;69.93;99165.88;5020608;28;97642;-79
2023/10/29 04:58:18;;;;;;;4.77;0.80;;;;;;;11.51;70.01;99158.69;5023571;28;97253;-80
2023/10/29 05:00:43;;;;;;;1.83;0.80;;;;;;;11.53;69.84;99173.44;5021008;28;98771;-80
2023/10/29 05:03:08;;;;;;;1.63;0.90;;;;;;;11.49;69.77;99156.47;5021255;28;101241;-79
2023/10/29 05:05:34;;;;;;;1.23;0.90;;;;;;;11.55;69.86;99163.84;5020032;27;98402;-79
2023/10/29 05:08:00;;;;;;;0.80;0.80;;;;;;;11.52;69.99;99135.97;5023019;28;97171;-80
2023/10/29 05:10:28;;;;;;;0.80;0.60;;;;;;;11.56;69.96;99160.50;5022232;27;98745;-79
2023/10/29 05:12:53;;;;;;;3.70;1.07;;;;;;;11.59;69.97;99126.16;5021146;28;98343;-79
2023/10/29 05:15:19;;;;;;;2.43;1.00;;;;;;;11.60;70.07;99146.28;5022666;28;96905;-80
2023/10/29 05:17:44;;;;;;;1.37;0.90;;;;;;;11.62;69.82;99135.38;5020369;27;97548;-79
2023/10/29 05:20:10;;;;;;;2.50;0.80;;;;;;;11.62;69.92;99133.34;5036471;27;99684;-79
2023/10/29 05:22:36;;;;;;;0.80;0.70;;;;;;;11.59;69.74;99133.72;5022752;28;97910;-77
2023/10/29 05:25:02;;;;;;;0.60;0.50;;;;;;;11.62;70.05;99135.38;5037389;27;97162;-79
2023/10/29 05:27:27;;;;;;;5.97;0.63;;;;;;;11.65;69.85;99134.25;5019864;28;97130;-80
2023/10/29 05:29:52;;;;;;;1.30;1.10;;;;;;;11.63;69.90;99139.63;5019867;28;100808;-79
2023/10/29 05:32:18;;;;;;;3.47;1.17;;;;;;;11.63;69.75;99139.63;5022561;27;100728;-78
2023/10/29 05:34:43;;;;;;;1.97;0.90;;;;;;;11.64;69.83;99154.94;5020719;28;99314;-79
2023/10/29 05:37:08;;;;;;;2.40;1.13;;;;;;;11.65;69.82;99145.34;5021365;28;97429;-79
2023/10/29 05:39:34;;;;;;;3.33;0.70;;;;;;;11.58;69.94;99143.31;5023808;27;99106;-79
2023/10/29 05:41:59;;;;;;;1.87;0.80;;;;;;;11.64;70.03;99166.75;5018857;28;99340;-79
2023/10/29 05:44:25;;;;;;;1.10;0.83;;;;;;;11.65;69.97;99137.03;5020908;28;96908;-79
2023/10/29 05:46:51;;;;;;;4.20;0.90;;;;;;;11.66;69.81;99144.06;5020165;28;97323;-79
2023/10/29 05:49:16;;;;;;;2.53;1.03;;;;;;;11.63;70.08;99150.69;5019585;28;100754;-79
2023/10/29 05:51:42;;;;;;;1.20;0.90;;;;;;;11.68;70.30;99155.31;5017217;28;99292;-78
2023/10/29 05:54:07;;;;;;;2.60;0.77;;;;;;;11.66;70.09;99150.31;5021728;27;97430;-79
2023/10/29 05:56:32;;;;;;;1.63;0.70;;;;;;;11.70;70.05;99158.25;5022216;28;96633;-79
2023/10/29 05:58:58;;;;;;;0.90;0.50;;;;;;;11.71;69.95;99156.94;5018051;28;106435;-79
2023/10/29 06:01:23;;;;;;;1.97;0.90;;;;;;;11.73;70.00;99168.19;5022074;27;96830;-79
2023/10/29 06:03:49;;;;;;;1.03;0.70;;;;;;;11.74;70.01;99166.91;5021606;27;97319;-79
2023/10/29 06:06:14;;;;;;;1.83;0.60;;;;;;;11.75;70.15;99166.34;5021043;27;97385;-78
2023/10/29 06:08:39;;;;;;;1.40;0.70;;;;;;;11.79;69.98;99179.84;5019116;27;97760;-78
2023/10/29 06:11:05;;;;;;;1.40;0.73;;;;;;;11.75;70.06;99160.81;5019129;28;97574;-78
2023/10/29 06:13:30;;;;;;;2.87;0.70;;;;;;;11.79;70.00;99171.53;5018289;28;96938;-78
2023/10/29 06:15:55;;;;;;;1.13;0.67;;;;;;;11.80;70.11;99179.25;5036361;27;97501;-79
2023/10/29 06:18:21;;;;;;;0.80;0.80;;;;;;;11.82;70.10;99164.84;5034776;27;99018;-79
2023/10/29 06:20:46;;;;;;;1.73;0.90;;;;;;;11.82;70.07;99176.66;5019668;27;96996;-78
2023/10/29 06:23:11;;;;;;;1.37;0.70;;;;;;;11.77;70.05;99163.00;5019760;27;97246;-79
2023/10/29 06:25:37;;;;;;;1.20;0.60;;;;;;;11.86;70.05;99187.34;5020534;28;97222;-78
2023/10/29 06:28:02;;;;;;;3.87;0.63;;;;;;;11.86;69.97;99165.94;5020012;28;100345;-79
2023/10/29 06:30:28;;;;;;;2.47;0.60;;;;;;;11.85;70.20;99172.78;5020893;27;100428;-79
2023/10/29 06:32:53;;;;;;;1.10;0.73;;;;;;;11.86;70.16;99192.91;5017370;28;97453;-80
2023/10/29 06:35:18;;;;;;;2.60;0.80;;;;;;;11.87;70.04;99191.63;5020420;28;98822;-78
2023/10/29 06:37:44;;;;;;;11.50;1.00;;;;;;;11.85;69.95;99185.91;5017498;28;99082;-79
2023/10/29 06:40:09;;;;;;;1.53;0.80;;;;;;;11.87;70.10;99180.53;5018645;28;99753;-79
2023/10/29 06:42:36;;;;;;;1.03;0.63;;;;;;;11.89;70.03;99184.22;5032136;27;97182;-78
2023/10/29 06:45:02;;;;;;;2.97;0.80;;;;;;;11.87;70.16;99186.06;5018727;27;97012;-78
2023/10/29 06:47:27;;;;;;;2.10;0.77;;;;;;;11.91;70.04;99197.50;5037944;27;100879;-79
2023/10/29 06:49:54;;;;;;;2.07;0.67;;;;;;;11.93;70.06;99169.97;5022228;27;99252;-78
2023/10/29 06:52:20;;;;;;;4.40;0.87;;;;;;;11.87;70.17;99177.75;5022514;27;98663;-78
2023/10/29 06:54:45;;;;;;;1.73;0.80;;;;;;;11.91;70.11;99183.66;5023485;27;101747;-79
2023/10/29 06:57:10;;;;;;;0.90;0.60;;;;;;;11.95;70.14;99204.16;5013897;28;99230;-78
2023/10/29 06:59:36;;;;;;;0.70;0.60;;;;;;;11.97;70.14;99192.50;5022643;28;100697;-78
2023/10/29 07:02:01;;;;;;;1.63;0.60;;;;;;;11.99;70.34;99196.19;5037988;27;96877;-80
2023/10/29 07:04:26;;;;;;;1.37;0.70;;;;;;;11.98;70.18;99194.00;5022019;28;97184;-79
2023/10/29 07:06:52;;;;;;;0.73;0.60;;;;;;;12.01;70.03;99188.06;5020298;28;99589;-78
2023/10/29 07:09:18;;;;;;;3.40;0.80;;;;;;;12.01;70.03;99193.59;5018566;28;100689;-78
2023/10/29 07:11:44;;;;;;;1.90;0.70;;;;;;;12.05;70.01;99193.22;5022984;27;97155;-78
2023/10/29 07:14:10;;;;;;;1.20;0.67;;;;;;;12.10;70.00;99195.03;5020102;28;97296;-79
2023/10/29 07:16:37;;;;;;;2.53;0.90;;;;;;;12.08;69.83;99203.19;5020687;28;99379;-78
2023/10/29 07:19:03;;;;;;;2.70;0.90;;;;;;;12.10;69.89;99183.94;5036336;27;99610;-78
2023/10/29 07:21:28;;;;;;;1.33;0.77;;;;;;;12.13;70.00;99177.28;5022062;28;97068;-79
2023/10/29 07:23:54;;;;;;;2.20;1.00;;;;;;;12.15;69.84;99186.53;5020725;27;103118;-78
2023/10/29 07:26:19;;;;;;;1.37;0.63;;;;;;;12.15;69.88;99178.19;5018729;27;100352;-78
2023/10/29 07:28:44;;;;;;;1.77;0.50;;;;;;;12.17;69.94;99183.91;5021277;28;110973;-78
2023/10/29 07:31:09;;;;;;;1.93;0.80;;;;;;;12.20;69.96;99182.06;5021078;28;97559;-78
2023/10/29 07:33:35;;;;;;;1.80;0.80;;;;;;;12.21;69.86;99175.19;5022226;27;96852;-78
2023/10/29 07:36:04;;;;;;;1.13;0.80;;;;;;;12.24;69.92;99174.09;5020207;28;100345;-78
2023/10/29 07:38:30;;;;;;;1.47;0.60;;;;;;;12.25;69.83;99181.84;5022372;27;96718;-78
2023/10/29 07:40:55;;;;;;;1.77;0.70;;;;;;;12.28;69.88;99188.28;5020597;27;97253;-78
2023/10/29 07:43:20;;;;;;;1.77;0.60;;;;;;;12.29;69.83;99189.03;5020627;28;97739;-78
2023/10/29 07:45:47;;;;;;;1.10;0.87;;;;;;;12.30;69.76;99182.91;5022126;28;106157;-78
2023/10/29 07:48:13;;;;;;;2.20;0.80;;;;;;;12.30;69.80;99191.22;5019613;28;96728;-78
2023/10/29 07:50:39;;;;;;;1.40;0.70;;;;;;;12.32;69.84;99191.41;5021256;28;97436;-77
2023/10/29 07:53:04;;;;;;;0.80;0.60;;;;;;;12.33;69.72;99198.44;5019803;27;97427;-78
2023/10/29 07:55:30;;;;;;;1.23;0.70;;;;;;;12.35;69.53;99200.63;5022640;28;98207;-78
2023/10/29 07:57:55;;;;;;;6.23;0.63;;;;;;;12.34;69.78;99197.13;5018462;27;99822;-78
2023/10/29 08:00:21;;;;;;;3.93;0.70;;;;;;;12.35;69.81;99195.09;5021930;27;96771;-80
2023/10/29 08:02:46;;;;;;;0.70;0.70;;;;;;;12.36;69.85;99204.91;5018887;27;97292;-77
2023/10/29 08:05:11;;;;;;;2.50;0.83;;;;;;;12.39;69.71;99215.59;5021776;28;97467;-78
2023/10/29 08:07:38;;;;;;;2.00;0.50;;;;;;;12.41;69.74;99201.88;5020664;27;99085;-78
2023/10/29 08:10:04;;;;;;;1.43;0.80;;;;;;;12.44;69.75;99194.47;5018701;28;97347;-77
2023/10/29 08:12:30;;;;;;;2.40;0.70;;;;;;;12.45;69.79;99191.13;5020473;27;98168;-78
2023/10/29 08:14:55;;;;;;;1.80;0.63;;;;;;;12.49;69.84;99196.31;5020613;28;98977;-77
2023/10/29 08:17:21;;;;;;;0.87;0.70;;;;;;;12.51;69.75;99199.97;5020078;28;96902;-78
2023/10/29 08:19:47;;;;;;;1.40;0.67;;;;;;;12.54;69.64;99190.53;5022055;28;96787;-78
2023/10/29 08:22:13;;;;;;;2.03;0.83;;;;;;;12.58;69.55;99199.19;5021320;27;97405;-78
2023/10/29 08:24:40;;;;;;;1.73;0.70;;;;;;;12.63;69.63;99206.56;5021826;28;97611;-77
2023/10/29 08:27:08;;;;;;;1.27;0.67;;;;;;;12.64;69.56;99207.31;5021537;27;98493;-77
2023/10/29 08:29:38;;;;;;;1.47;0.60;;;;;;;12.63;69.50;99205.81;5020401;28;97318;-77
2023/10/29 08:32:04;;;;;;;1.50;0.97;;;;;;;12.66;69.45;99215.78;5020514;28;96678;-77
2023/10/29 08:34:29;;;;;;;1.00;0.87;;;;;;;12.68;69.52;99227.81;5017316;28;101659;-77
2023/10/29 08:36:55;;;;;;;1.07;0.70;;;;;;;12.70;69.51;99221.69;5021743;27;97128;-78
2023/10/29 08:39:21;;;;;;;0.80;0.60;;;;;;;12.75;69.47;99223.50;5019425;28;97130;-77
2023/10/29 08:41:47;;;;;;;1.77;0.60;;;;;;;12.79;69.54;99229.38;5020178;28;96937;-77
2023/10/29 08:44:13;;;;;;;4.43;0.70;;;;;;;12.83;69.54;99229.72;5020823;27;99627;-77
2023/10/29 08:46:38;;;;;;;0.90;0.70;;;;;;;12.88;69.40;99229.47;5020421;27;97551;-78
2023/10/29 08:49:04;;;;;;;2.30;0.80;;;;;;;12.91;69.32;99230.41;5020912;28;96774;-78
2023/10/29 08:51:29;;;;;;;1.20;0.60;;;;;;;12.93;69.19;99219.47;5021375;28;97260;-78
2023/10/29 08:53:57;;;;;;;1.00;0.80;;;;;;;12.96;69.18;99227.41;5021715;28;98857;-77
2023/10/29 08:56:22;;;;;;;1.07;0.70;;;;;;;12.98;69.21;99215.72;5019614;27;98834;-77
2023/10/29 08:58:47;;;;;;;2.07;0.73;;;;;;;12.96;69.11;99212.78;5005255;27;98206;-78
2023/10/29 09:01:13;;;;;;;2.20;0.70;;;;;;;12.95;69.11;99211.28;5016951;27;98876;-78
2023/10/29 09:03:38;;;;;;;4.57;0.80;;;;;;;12.94;69.35;99210.59;5020237;27;101325;-77
2023/10/29 09:06:04;;;;;;;0.70;0.63;;;;;;;12.95;69.03;99212.03;5017256;27;100902;-77
2023/10/29 09:08:37;;;;;;;0.87;0.80;;;;;;;12.96;68.99;99210.75;5033282;27;97344;-77
2023/10/29 09:11:03;;;;;;;2.73;0.83;;;;;;;12.97;68.99;99242.75;5019071;27;96854;-78
2023/10/29 09:13:28;;;;;;;1.47;0.87;;;;;;;13.05;69.12;99262.16;5018798;28;98945;-77
2023/10/29 09:15:54;;;;;;;1.10;0.80;;;;;;;13.13;68.97;99267.63;5019924;27;99729;-77
2023/10/29 09:18:21;;;;;;;0.60;0.50;;;;;;;13.24;68.72;99267.91;5019040;27;97187;-77
2023/10/29 09:20:46;;;;;;;3.50;0.70;;;;;;;13.33;68.62;99283.97;5020414;28;97131;-78
2023/10/29 09:23:15;;;;;;;0.80;0.80;;;;;;;13.36;68.49;99302.25;5015952;27;100769;-78
2023/10/29 09:25:44;;;;;;;5.73;1.10;;;;;;;13.38;68.54;99293.38;5019573;27;97708;-78
2023/10/29 09:28:17;;;;;;;1.77;0.60;;;;;;;13.39;68.47;99276.13;5080879;27;97551;-55
2023/10/29 09:30:42;;;;;;;3.27;0.80;;;;;;;13.38;68.65;99283.00;5097578;27;97182;-55
2023/10/29 09:33:08;;;;;;;0.70;0.67;;;;;;;13.39;68.58;99289.25;5100097;27;96858;-55
2023/10/29 09:35:40;;;;;;;2.20;0.60;;;;;;;13.47;68.46;99287.19;5116980;27;97587;-56
2023/10/29 09:38:05;;;;;;;2.40;0.90;;;;;;;13.49;68.32;99279.72;5116274;27;97057;-55
2023/10/29 09:40:31;;;;;;;2.53;0.90;;;;;;;13.55;68.08;99274.69;5117873;27;96837;-56
2023/10/29 09:43:01;;;;;;;1.43;0.73;;;;;;;13.59;68.19;99286.13;5120101;27;96980;-55
2023/10/29 09:45:27;;;;;;;2.70;0.70;;;;;;;13.59;68.14;99279.81;5115353;27;96667;-56
2023/10/29 09:47:54;;;;;;;1.17;0.50;;;;;;;13.61;68.02;99277.94;5115300;27;96957;-55
2023/10/29 09:50:21;;;;;;;1.30;0.70;;;;;;;13.68;67.97;99287.53;5119554;27;97084;-55
2023/10/29 09:52:52;;;;;;;1.97;0.53;;;;;;;13.75;67.66;99275.59;5117527;27;97159;-55
2023/10/29 09:55:20;;;;;;;0.80;0.70;;;;;;;13.84;67.75;99279.78;5114912;27;96953;-55
2023/10/29 09:57:46;;;;;;;2.03;0.60;;;;;;;13.90;67.53;99280.25;5120348;27;97052;-55
2023/10/29 10:00:13;;;;;;;0.93;0.90;;;;;;;13.96;67.49;99292.59;5119492;27;97458;-56
2023/10/29 10:02:52;;;;;;;1.20;0.80;;;;;;;13.99;66.10;99296.28;5115496;27;97605;-55
2023/10/29 10:05:20;;;;;;;0.80;0.50;;;;;;;14.04;67.16;99309.25;5111406;27;98396;-56
2023/10/29 10:07:46;;;;;;;1.90;0.77;;;;;;;14.06;67.18;99304.56;5113390;27;96951;-55
2023/10/29 10:10:13;;;;;;;1.43;0.70;;;;;;;14.10;66.79;99309.72;5117844;27;96945;-55
2023/10/29 10:12:49;;;;;;;1.83;0.80;;;;;;;14.15;66.06;99303.91;5118799;27;97238;-55
2023/10/29 10:15:19;;;;;;;0.70;0.57;;;;;;;14.20;66.49;99308.47;5113628;27;97246;-56
2023/10/29 10:17:47;;;;;;;2.60;0.70;;;;;;;14.27;66.60;99329.19;5114893;27;97333;-55
2023/10/29 10:20:13;;;;;;;1.00;0.60;;;;;;;14.31;66.39;99335.81;5116449;27;96901;-55
2023/10/29 10:22:38;;;;;;;0.90;0.53;;;;;;;14.33;66.26;99326.88;5116285;27;97253;-55
2023/10/29 10:25:04;;;;;;;1.00;0.70;;;;;;;14.40;66.14;99337.19;5117210;27;97300;-55
2023/10/29 10:27:29;;;;;;;1.23;0.50;;;;;;;14.44;66.04;99329.91;5114183;27;97127;-55
2023/10/29 10:29:55;;;;;;;5.17;0.63;;;;;;;14.51;65.96;99338.72;5116844;27;97312;-56
2023/10/29 10:32:24;;;;;;;1.33;0.70;;;;;;;14.56;65.38;99343.31;5110168;27;98798;-56
2023/10/29 10:34:53;;;;;;;0.70;0.40;;;;;;;14.60;65.64;99335.25;5110148;27;97931;-56
2023/10/29 10:37:19;;;;;;;0.97;0.67;;;;;;;14.63;65.66;99323.00;5117282;27;97326;-55
2023/10/29 10:39:44;;;;;;;1.80;0.80;;;;;;;14.64;65.59;99335.56;5100469;27;97036;-55
2023/10/29 10:42:09;;;;;;;1.60;0.87;;;;;;;14.64;65.64;99344.69;5102455;27;97943;-56
2023/10/29 10:44:36;;;;;;;1.43;0.93;;;;;;;14.61;65.30;99353.44;5101521;27;109126;-55
2023/10/29 10:47:03;;;;;;;3.57;0.70;;;;;;;14.64;65.34;99346.72;5103402;27;97104;-56
2023/10/29 10:49:31;;;;;;;1.30;0.60;;;;;;;14.68;65.48;99350.56;5101400;27;97063;-55
2023/10/29 10:52:01;;;;;;;2.10;0.50;;;;;;;14.71;65.01;99354.97;5100515;27;96825;-56
2023/10/29 10:54:27;;;;;;;1.10;0.60;;;;;;;14.73;64.90;99357.91;5100131;27;97146;-55
2023/10/29 10:56:54;;;;;;;3.00;0.50;;;;;;;14.78;64.98;99354.13;5103503;27;96727;-56
2023/10/29 10:59:20;;;;;;;6.20;0.50;;;;;;;14.84;64.96;99360.19;5107370;27;96973;-56
2023/10/29 11:01:47;;;;;;;5.77;0.80;;;;;;;14.89;64.59;99342.47;5104294;27;97031;-55
2023/10/29 11:04:13;;;;;;;2.27;0.80;;;;;;;14.94;64.24;99332.38;5100436;27;96825;-55
2023/10/29 11:06:40;;;;;;;1.40;0.67;;;;;;;14.97;64.12;99340.34;5103507;27;97006;-56
2023/10/29 11:09:14;;;;;;;1.17;0.60;;;;;;;14.99;63.07;99346.09;5102695;27;97779;-56
2023/10/29 11:11:44;;;;;;;0.67;0.50;;;;;;;15.00;64.07;99327.31;5100275;27;97830;-55
2023/10/29 11:14:15;;;;;;;0.77;0.50;;;;;;;15.03;63.40;99331.72;5103717;27;98413;-56
2023/10/29 11:16:54;;;;;;;2.83;0.70;;;;;;;15.05;62.75;99329.09;5100835;27;98384;-55
2023/10/29 11:19:46;;;;;;;0.77;0.50;;;;;;;15.03;61.36;99324.09;5101568;27;96728;-55
2023/10/29 11:22:18;;;;;;;1.63;0.50;;;;;;;15.12;62.95;99325.47;5101232;27;98833;-55
2023/10/29 11:25:04;;;;;;;2.60;0.60;;;;;;;15.28;62.95;99320.41;5102439;27;98243;-55
2023/10/29 11:27:46;;;;;;;1.17;0.73;;;;;;;15.40;62.01;99338.75;5099265;27;96914;-55